• Join FlightAware (Why Join?)
  • Login
  • US Flag 
12:29AM EDT


 

Airport Tracker/Info


-or-


 

Live Flight TrackerFlight Track Log ✈ QFA1031 ✈ 23-Jun-2013 ✈ YBRM / BME - YBBN / BNE

Flight Track Log - Related Links

Times and Time Zones

All times are in EDT time to prevent confusion due to time zone crossing. See the QFA1031 flight status page for this flight to view local times or setup timezone preferences in your user account.

Time Position Orientation Groundspeed Altitude Reporting Facility
EDT Latitude Longitude Course Direction KTS MPH feet Rate Location/Type
12:47AM -17.9496 122.2277 120° Southeast 37,000  Level Aus ATC (Calculated)
12:50AM -18.0919 122.5651 114° Southeast  Level Estimated
12:50AM -18.1251 122.5468 120° Southeast 37,000  Level Aus ATC (Calculated)
12:51AM -18.2038 122.6904 120° Southeast 37,000  Level Aus ATC (Calculated)
12:53AM -18.3113 122.8870 120° Southeast  Level FlightAware Approximate
12:53AM -18.3143 122.8926 120° Southeast 37,000  Level Aus ATC (Calculated)
12:54AM -18.3810 123.0149 120° Southeast 37,000  Level Aus ATC (Calculated)
12:55AM -18.4301 123.1053 120° Southeast  Level FlightAware Approximate
12:56AM -18.4764 123.1905 120° Southeast  Level FlightAware Approximate
12:56AM -18.4746 123.1870 120° Southeast 37,000  Level Aus ATC (Calculated)
12:57AM -18.5311 123.2911 120° Southeast 37,000  Level Aus ATC (Calculated)
12:58AM -18.5880 123.3961 120° Southeast  Level FlightAware Approximate
12:59AM -18.6374 123.4875 120° Southeast  Level FlightAware Approximate
12:59AM -18.6368 123.4864 120° Southeast 37,000  Level Aus ATC (Calculated)
01:01AM -18.7504 123.6969 120° Southeast  Level FlightAware Approximate
01:01AM -18.7263 123.6521 120° Southeast 37,000  Level Aus ATC (Calculated)
01:02AM -18.8198 123.8260 120° Southeast  Level FlightAware Approximate
01:03AM -18.8327 123.8499 120° Southeast  Level FlightAware Approximate
01:03AM -18.8478 123.8780 120° Southeast 37,000  Level Aus ATC (Calculated)
01:05AM -18.9621 124.0912 120° Southeast  Level FlightAware Approximate
01:06AM -19.0312 124.2205 120° Southeast  Level FlightAware Approximate
01:06AM -19.0447 124.2457 120° Southeast 37,000  Level Aus ATC (Calculated)
01:07AM -19.1003 124.3500 119° Southeast  Level FlightAware Approximate
01:08AM -19.1586 124.4594 119° Southeast  Level FlightAware Approximate
01:08AM -19.1674 124.4760 120° Southeast 37,000  Level Aus ATC (Calculated)
01:10AM -19.2569 124.7024 119° Southeast  Level Estimated
01:11AM -19.3280 124.8308 120° Southeast  Level FlightAware Approximate
01:11AM -19.3458 124.8124 119° Southeast 37,000  Level Aus ATC (Calculated)
01:13AM -19.4550 125.0178 119° Southeast  Level FlightAware Approximate
01:13AM -19.4608 125.0291 119° Southeast 37,000  Level Aus ATC (Calculated)
01:15AM -19.5767 125.2478 119° Southeast  Level FlightAware Approximate
01:16AM -19.6454 125.3779 119° Southeast  Level FlightAware Approximate
01:16AM -19.6841 125.4514 119° Southeast 37,000  Level Aus ATC (Calculated)
01:17AM -19.7140 125.5081 119° Southeast  Level FlightAware Approximate
01:18AM -19.7952 125.6626 119° Southeast  Level FlightAware Approximate
01:19AM -19.8652 125.7962 119° Southeast  Level FlightAware Approximate
01:20AM -19.9190 125.9380 119° Southeast  Level Estimated
01:21AM -19.9893 126.0715 119° Southeast  Level FlightAware Approximate
01:21AM -20.0394 126.1295 119° Southeast 37,000  Level Aus ATC (Calculated)
01:22AM -20.0595 126.2051 119° Southeast  Level FlightAware Approximate
01:22AM -20.0836 126.2145 119° Southeast 37,000  Level Aus ATC (Calculated)
01:24AM -20.2149 126.4678 119° Southeast  Level FlightAware Approximate
01:24AM -20.2146 126.4671 119° Southeast 37,000  Level Aus ATC (Calculated)
01:26AM -20.3489 126.7274 119° Southeast  Level FlightAware Approximate
01:26AM -20.4104 126.8468 119° Southeast 37,000  Level Aus ATC (Calculated)
01:27AM -20.4165 126.8588 119° Southeast  Level FlightAware Approximate
01:28AM -20.4790 126.9805 119° Southeast  Level FlightAware Approximate
01:29AM -20.5464 127.1122 119° Southeast  Level FlightAware Approximate
01:30AM -20.6136 127.2439 119° Southeast  Level FlightAware Approximate
01:31AM -20.6808 127.3757 119° Southeast  Level FlightAware Approximate
01:31AM -20.7348 127.4818 119° Southeast 37,000  Level Aus ATC (Calculated)
01:32AM -20.7479 127.5077 119° Southeast  Level FlightAware Approximate
01:33AM -20.8040 127.6183 119° Southeast  Level FlightAware Approximate
01:34AM -20.8710 127.7505 118° Southeast  Level FlightAware Approximate
01:35AM -20.9378 127.8828 118° Southeast  Level FlightAware Approximate
01:36AM -21.0045 128.0152 118° Southeast  Level FlightAware Approximate
01:36AM -21.0569 128.1195 118° Southeast 37,000  Level Aus ATC (Calculated)
01:37AM -21.0711 128.1477 118° Southeast  Level FlightAware Approximate
01:38AM -21.1256 128.2566 118° Southeast  Level FlightAware Approximate
01:38AM -21.1210 128.2474 118° Southeast 37,000  Level Aus ATC (Calculated)
01:39AM -21.1874 128.3801 118° Southeast  Level FlightAware Approximate
01:39AM -21.1851 128.3753 118° Southeast 37,000  Level Aus ATC (Calculated)
01:41AM -21.3165 128.6390 118° Southeast  Level FlightAware Approximate
01:41AM -21.3766 128.7599 118° Southeast 37,000  Level Aus ATC (Calculated)
01:41AM -21.3766 128.7599 118° Southeast 37,000  Level Aus ATC (Calculated)
01:42AM -21.3826 128.7721 118° Southeast  Level FlightAware Approximate
01:43AM -21.4459 128.8998 118° Southeast  Level FlightAware Approximate
01:44AM -21.5118 129.0331 118° Southeast  Level FlightAware Approximate
01:45AM -21.5776 129.1666 118° Southeast  Level FlightAware Approximate
01:46AM -21.6433 129.3002 118° Southeast  Level FlightAware Approximate
01:46AM -21.6938 129.4031 118° Southeast 37,000  Level Aus ATC (Calculated)
01:47AM -21.6180 129.4769 117° Southeast  Level Estimated
01:48AM -21.7626 129.5436 118° Southeast  Level FlightAware Approximate
01:49AM -21.8279 129.6775 118° Southeast  Level FlightAware Approximate
01:50AM -21.8932 129.8116 118° Southeast  Level FlightAware Approximate
01:51AM -21.9584 129.9457 118° Southeast  Level FlightAware Approximate
01:51AM -21.9458 129.9196 118° Southeast 37,000  Level Aus ATC (Calculated)
01:51AM -22.0085 130.0490 118° Southeast 37,000  Level Aus ATC (Calculated)
01:53AM -22.0778 130.1924 118° Southeast  Level FlightAware Approximate
01:53AM -22.0712 130.1786 118° Southeast 37,000  Level Aus ATC (Calculated)
01:54AM -22.1602 130.3633 117° Southeast 37,000  Level Aus ATC (Calculated)
01:56AM -22.2761 130.6047 117° Southeast  Level FlightAware Approximate
01:57AM -22.3409 130.7402 117° Southeast  Level FlightAware Approximate
01:58AM -22.4056 130.8759 117° Southeast  Level FlightAware Approximate
01:58AM -22.3982 130.8603 117° Southeast 37,000  Level Aus ATC (Calculated)
01:59AM -22.5440 131.1680 117° Southeast 516 594 37,000  Level FlightAware
02:00AM -22.5079 131.0912 117° Southeast  Level FlightAware Approximate
02:00AM -22.5930 131.2720 117° Southeast 516 594 37,000  Level FlightAware
02:00AM -22.6400 131.3690 118° Southeast 516 594 37,000  Level FlightAware
02:01AM -22.6820 131.4580 117° Southeast 516 594 37,000  Level FlightAware
02:02AM -22.7280 131.5580 117° Southeast 516 594 37,000  Level FlightAware
02:02AM -22.7750 131.6570 117° Southeast 516 594 37,000  Level FlightAware
02:03AM -22.7130 131.5257 117° Southeast 37,000  Level Aus ATC (Calculated)
02:03AM -22.8170 131.7470 117° Southeast 516 594 37,000  Level FlightAware
02:04AM -22.8660 131.8520 117° Southeast 516 594 37,000  Level FlightAware
02:05AM -22.9080 131.9430 117° Southeast 516 594 37,000  Level FlightAware
02:05AM -22.9540 132.0410 117° Southeast 517 595 37,000  Level FlightAware
02:06AM -22.9990 132.1370 117° Southeast 517 595 37,000  Level FlightAware
02:07AM -23.0430 132.2320 117° Southeast 519 597 37,000  Level FlightAware
02:07AM -23.0910 132.3360 117° Southeast 520 598 37,000  Level FlightAware
02:08AM -22.9992 132.1382 117° Southeast 37,000  Level Aus ATC (Calculated)
02:08AM -23.1320 132.4250 117° Southeast 521 600 37,000  Level FlightAware
02:09AM -23.1830 132.5350 117° Southeast 522 601 37,000  Level FlightAware
02:09AM -23.2270 132.6310 117° Southeast 523 602 37,000  Level FlightAware
02:10AM -23.2750 132.7340 117° Southeast 524 603 37,000  Level FlightAware
02:11AM -23.3170 132.8260 116° Southeast 525 604 37,000  Level FlightAware
02:11AM -23.3600 132.9200 117° Southeast 526 605 37,000  Level FlightAware
02:12AM -23.4060 133.0220 116° Southeast 525 604 37,000  Level FlightAware
02:12AM -23.3086 132.8093 117° Southeast 37,000  Level Aus ATC (Calculated)
02:13AM -23.3086 132.8093 117° Southeast 37,000  Level Aus ATC (Calculated)
02:13AM -23.4550 133.1290 116° Southeast 525 604 37,000  Level FlightAware
02:14AM -23.5010 133.2300 116° Southeast 525 604 37,000  Level FlightAware
02:14AM -23.5410 133.3190 116° Southeast 523 602 37,000  Level FlightAware
02:15AM -23.5870 133.4210 116° Southeast 523 602 37,000  Level FlightAware
02:16AM -23.6330 133.5230 116° Southeast 523 602 37,000  Level FlightAware
02:16AM -23.6750 133.6150 117° Southeast 521 600 37,000  Level FlightAware
02:17AM -23.7260 133.7280 116° Southeast 521 600 37,000  Level FlightAware
02:18AM -23.6152 133.4835 116° Southeast 37,000  Level Aus ATC (Calculated)
02:18AM -23.7680 133.8230 116° Southeast 521 600 37,000  Level FlightAware
02:18AM -23.6660 133.5961 115° Southeast 37,000  Level Aus ATC (Calculated)
02:18AM -23.8020 133.9180 111° Southeast 535 616 37,000  Level FlightAware
02:19AM -23.8310 134.0370 111° Southeast 538 619 37,000  Level FlightAware
02:20AM -23.8550 134.1370 105° East 539 620 37,000  Level FlightAware
02:21AM -23.8820 134.2530 104° East 538 619 37,000  Level FlightAware
02:21AM -23.9100 134.3720 104° East 540 621 37,000  Level FlightAware
02:22AM -23.9350 134.4740 105° East 541 623 37,000  Level FlightAware
02:23AM -23.9670 134.6110 104° East 541 623 37,000  Level FlightAware
02:23AM -23.8997 134.3269 105° East 39,000  Climbing Aus ATC (Calculated)
02:23AM -23.8997 134.3269 105° East 39,000 -4,500 Level Aus ATC (Calculated)
02:24AM -23.9920 134.7190 104° East 543 625 37,000 -1,740 Descending FlightAware
02:24AM -24.0210 134.8420 104° East 543 625 37,000  Level FlightAware
02:25AM -24.0460 134.9510 104° East 545 627 37,000  Level FlightAware
02:26AM -24.0740 135.0710 104° East 545 627 37,000  Level FlightAware
02:26AM -24.0053 134.7763 104° East 39,000  Climbing Aus ATC (Calculated)
02:26AM -24.0980 135.1740 104° East 545 627 37,000 -1,860 Descending FlightAware
02:27AM -24.0472 134.9562 104° East 39,000  Climbing Aus ATC (Calculated)
02:27AM -24.1260 135.2940 104° East 545 627 37,000 -2,460 Descending FlightAware
02:28AM -24.1500 135.4000 104° East 544 626 37,000  Level FlightAware
02:28AM -24.0889 135.1363 104° East 39,000  Climbing Aus ATC (Calculated)
02:29AM -24.1760 135.5170 104° East 544 626 37,000 -1,800 Descending FlightAware
02:29AM -24.2040 135.6380 104° East 544 626 37,000  Level FlightAware
02:30AM -24.2280 135.7440 104° East 543 625 37,000  Level FlightAware
02:31AM -24.2530 135.8530 104° East 542 624 37,000  Level FlightAware
02:32AM -24.2800 135.9730 104° East 543 625 37,000  Level FlightAware
02:32AM -24.2127 135.6772 104° East 39,000  Climbing Aus ATC (Calculated)
02:32AM -24.3120 136.1200 104° East 544 626 37,000 -1,860 Descending FlightAware
02:33AM -24.2535 135.8578 104° East 39,000  Climbing Aus ATC (Calculated)
02:33AM -24.3390 136.2370 104° East 544 626 37,000 -2,160 Descending FlightAware
02:33AM -24.2739 135.9481 104° East 39,000 600 Climbing Aus ATC (Calculated)
02:34AM -24.3630 136.3470 104° East 543 625 37,400 -720 Descending FlightAware
02:34AM -24.3860 136.4520 104° East 539 620 38,200 960 Climbing FlightAware
02:35AM -24.4010 136.5210 103° East 538 619 38,500 540 Climbing FlightAware
02:36AM -24.4360 136.6770 104° East 544 626 39,000 300 Climbing FlightAware
02:36AM -24.3748 136.4001 104° East 39,000  Level Aus ATC (Calculated)
02:36AM -24.4580 136.7780 103° East 545 627 39,000  Level FlightAware
02:37AM -24.4850 136.9030 103° East 547 629 39,000  Level FlightAware
02:38AM -24.5080 137.0100 103° East 548 631 39,000  Level FlightAware
02:39AM -24.5410 137.1600 104° East 549 632 39,000  Level FlightAware
02:39AM -24.4792 136.8758 103° East 39,000  Level Aus ATC (Calculated)
02:39AM -24.5650 137.2730 104° East 550 633 39,000  Level FlightAware
02:42AM -24.6319 137.5868 103° East  Level FlightAware Approximate
02:42AM -24.6300 137.5810 103° East 551 634 39,000  Level FlightAware
02:42AM -24.5894 137.3874 103° East 39,000  Level Aus ATC (Calculated)
02:42AM -24.5894 137.3874 103° East 39,000  Level Aus ATC (Calculated)
02:43AM -24.6720 137.7780 103° East 550 633 39,000  Level FlightAware
02:43AM -24.6258 137.5581 103° East 39,000  Level Aus ATC (Calculated)
02:43AM -24.6900 137.8610 103° East 550 633 39,000  Level FlightAware
02:44AM -24.7130 137.9730 103° East 550 633 39,000  Level FlightAware
02:45AM -24.7310 138.0560 103° East 550 633 39,000  Level FlightAware
02:45AM -24.7540 138.1670 103° East 550 633 39,000  Level FlightAware
02:46AM -24.7293 138.0503 103° East 39,000  Level Aus ATC (Calculated)
02:46AM -24.7720 138.2530 103° East 550 633 39,000  Level FlightAware
02:47AM -24.7940 138.3600 103° East 550 633 39,000  Level FlightAware
02:47AM -24.8120 138.4440 103° East 550 633 39,000  Level FlightAware
02:48AM -24.8350 138.5550 103° East 550 633 39,000  Level FlightAware
02:49AM -24.8530 138.6390 103° East 550 633 39,000  Level FlightAware
02:50AM -24.8840 138.7900 103° East 550 633 39,000  Level FlightAware
02:50AM -24.8853 138.8083 106° East 39,000  Level Aus ATC (Calculated)
02:50AM -24.9020 138.8730 103° East 550 633 39,000  Level FlightAware
02:51AM -24.9260 138.9870 103° East 550 633 39,000  Level FlightAware
02:52AM -24.9440 139.0730 103° East 550 633 39,000  Level FlightAware
02:53AM -24.9610 139.1570 103° East 550 633 39,000  Level FlightAware
02:53AM -24.9840 139.2690 103° East 550 633 39,000  Level FlightAware
02:53AM -24.9836 139.2966 109° East 39,000  Level Aus ATC (Calculated)
02:54AM -25.0020 139.3550 103° East 550 633 39,000  Level FlightAware
02:55AM -25.0260 139.4660 103° East 550 633 39,000  Level FlightAware
02:55AM -25.0450 139.5570 103° East 550 633 39,000  Level FlightAware
02:55AM -25.0482 139.6226 115° Southeast 39,000  Level Aus ATC (Calculated)
02:56AM -25.0680 139.6690 103° East 550 633 39,000  Level FlightAware
02:57AM -25.0860 139.7520 103° East 550 633 39,000  Level FlightAware
02:59AM -25.1377 140.0296 102° East  Level FlightAware Approximate
03:00AM -25.1676 140.1914 102° East  Level FlightAware Approximate
03:00AM -25.2170 140.4934 81° East 39,000  Level Aus ATC (Calculated)
03:01AM -25.1973 140.3533 101° East  Level FlightAware Approximate
03:02AM -25.2508 140.6713 102° East  Level FlightAware Approximate
03:03AM -25.2814 140.8331 102° East  Level FlightAware Approximate
03:03AM -25.1230 141.1540 102° East 558 642 39,000  Level FlightAware
03:03AM -25.1350 141.2690 97° East 558 642 39,000  Level FlightAware
03:04AM -25.1480 141.3910 97° East 558 642 39,000  Level FlightAware
03:05AM -25.1610 141.5160 97° East 559 643 39,000  Level FlightAware
03:05AM -25.1720 141.6160 97° East 560 644 39,000  Level FlightAware
03:05AM -25.3715 141.3168 67° East 39,000  Level Aus ATC (Calculated)
03:06AM -25.1900 141.7880 97° East 560 644 39,000  Level FlightAware
03:07AM -25.2020 141.9120 96° East 560 644 39,000  Level FlightAware
03:07AM -25.4334 141.6543 57° Northeast 39,000  Level Aus ATC (Calculated)
03:08AM -25.2130 142.0220 96° East 560 644 39,000  Level FlightAware
03:08AM -25.2270 142.1550 96° East 560 644 39,000  Level FlightAware
03:09AM -25.2380 142.2660 96° East 561 646 39,000  Level FlightAware
03:10AM -25.2500 142.3800 97° East 562 647 39,000  Level FlightAware
03:10AM -25.5147 142.1049 58° Northeast 39,000  Level Aus ATC (Calculated)
03:11AM -25.2660 142.5480 97° East 562 647 39,000  Level FlightAware
03:12AM -25.2810 142.7050 96° East 563 648 39,000  Level FlightAware
03:12AM -25.2940 142.8280 97° East 563 648 39,000  Level FlightAware
03:13AM -25.3050 142.9500 96° East 564 649 39,000  Level FlightAware
03:14AM -25.3170 143.0700 96° East 563 648 39,000  Level FlightAware
03:14AM -25.3270 143.1790 96° East 565 650 39,000  Level FlightAware
03:15AM -25.3370 143.2890 96° East 565 650 39,000  Level FlightAware
03:15AM -25.6634 142.9515 54° Northeast 39,000  Level Aus ATC (Calculated)
03:16AM -25.3500 143.4300 96° East 563 648 39,000  Level FlightAware
03:17AM -25.3610 143.5490 96° East 562 647 39,000  Level FlightAware
03:17AM -25.3720 143.6700 96° East 562 647 39,000  Level FlightAware
03:18AM -25.3830 143.7920 96° East 563 648 39,000  Level FlightAware
03:19AM -25.3930 143.9070 96° East 562 647 39,000  Level FlightAware
03:19AM -25.4040 144.0320 96° East 563 648 39,000  Level FlightAware
03:20AM -25.4150 144.1540 96° East 564 649 39,000  Level FlightAware
03:20AM -25.7978 143.7434 52° Northeast 39,000  Level Aus ATC (Calculated)
03:21AM -25.4250 144.2700 96° East 565 650 39,000  Level FlightAware
03:21AM -25.4350 144.3850 96° East 565 650 39,000  Level FlightAware
03:22AM -25.4460 144.5110 96° East 566 651 39,000  Level FlightAware
03:23AM -25.4560 144.6380 95° East 567 652 39,000  Level FlightAware
03:24AM -25.4660 144.7520 96° East 569 655 39,000  Level FlightAware
03:24AM -25.4750 144.8680 95° East 570 656 39,000  Level FlightAware
03:25AM -25.4860 144.9970 95° East 571 657 39,000  Level FlightAware
03:25AM -25.9370 144.5939 47° Northeast 39,000  Level Aus ATC (Calculated)
03:26AM -25.4960 145.1250 95° East 570 656 39,000  Level FlightAware
03:26AM -25.9551 144.7074 47° Northeast 39,000  Level Aus ATC (Calculated)
03:26AM -25.5060 145.2400 96° East 570 656 39,000  Level FlightAware
03:27AM -25.5150 145.3550 96° East 569 655 39,000  Level FlightAware
03:28AM -25.5250 145.4840 95° East 568 654 39,000  Level FlightAware
03:28AM -26.0036 145.0141 48° Northeast 39,000  Level Aus ATC (Calculated)
03:28AM -25.5340 145.6000 95° East 567 652 39,000  Level FlightAware
03:29AM -25.5440 145.7290 95° East 566 651 39,000  Level FlightAware
03:30AM -25.5520 145.8320 95° East 565 650 39,000  Level FlightAware
03:30AM -26.0716 145.4518 42° Northeast 39,000  Level Aus ATC (Calculated)
03:31AM -25.5620 145.9650 95° East 564 649 39,000  Level FlightAware
03:31AM -26.0908 145.5770 41° Northeast 39,000  Level Aus ATC (Calculated)
03:31AM -25.5700 146.0800 94° East 565 650 39,000  Level FlightAware
03:32AM -25.5800 146.2070 94° East 565 650 39,000  Level FlightAware
03:33AM -25.5890 146.3290 95° East 566 651 39,000  Level FlightAware
03:33AM -25.5950 146.4320 94° East 566 651 39,000  Level FlightAware
03:34AM -25.6050 146.5510 95° East 567 652 39,000  Level FlightAware
03:35AM -25.6120 146.6720 94° East 567 652 39,000 120 Level FlightAware
03:35AM -25.6198 146.7834 94° East 565 650 39,200  Climbing Aus ATC (RADAR)
03:35AM -25.6230 146.8170 94° East 568 654 39,000 -300 Descending FlightAware
03:36AM -25.6300 146.9250 94° East 568 654 39,000 120 Level FlightAware
03:37AM -25.6353 147.0287 94° East 564 649 39,200  Climbing Aus ATC (RADAR)
03:37AM -25.6390 147.0510 94° East 568 654 39,000 -240 Descending FlightAware
03:38AM -25.6500 147.2170 94° East 568 654 39,000 120 Level FlightAware
03:38AM -25.6555 147.3191 94° East 567 652 39,200 120 Climbing Aus ATC (RADAR)
03:39AM -25.6619 147.4204 94° East 566 651 39,200  Level Aus ATC (RADAR)
03:40AM -25.6712 147.5650 94° East 565 650 39,200 -180 Level Aus ATC (RADAR)
03:41AM -25.6770 147.6430 94° East 568 654 39,000  Descending FlightAware
03:41AM -25.6876 147.7974 94° East 575 662 39,200  Climbing Aus ATC (RADAR)
03:41AM -25.6850 147.7610 94° East 566 651 39,000 -300 Descending FlightAware
03:42AM -25.6920 147.8830 94° East 566 651 39,000  Level FlightAware
03:43AM -25.6990 147.9990 94° East 566 651 39,000  Level FlightAware
03:43AM -25.7070 148.1220 94° East 564 649 39,000  Level FlightAware
03:44AM -25.7140 148.2410 94° East 564 649 39,000 120 Level FlightAware
03:45AM -25.7222 148.3874 94° East 561 646 39,200  Climbing Aus ATC (RADAR)
03:45AM -25.7200 148.3520 94° East 564 649 39,000  Descending FlightAware
03:45AM -25.7299 148.5169 94° East 559 643 39,200 120 Climbing Aus ATC (RADAR)
03:46AM -25.7381 148.6610 94° East 562 647 39,200  Level Aus ATC (RADAR)
03:47AM -25.7457 148.8047 93° East 559 643 39,200 -240 Level Aus ATC (RADAR)
03:47AM -25.7370 148.7030 93° East 564 649 39,000 -240 Descending FlightAware
03:48AM -25.7430 148.8240 93° East 564 649 39,000  Level FlightAware
03:48AM -25.7470 148.9120 93° East 564 649 39,000 240 Level FlightAware
03:49AM -25.7604 149.0789 93° East 560 644 39,200 180 Climbing Aus ATC (RADAR)
03:49AM -25.7685 149.2380 93° East 561 646 39,200 -240 Level Aus ATC (RADAR)
03:49AM -25.7540 149.0750 93° East 564 649 39,000 -360 Descending FlightAware
03:50AM -25.7580 149.1560 93° East 564 649 39,000  Level FlightAware
03:51AM -25.7640 149.2740 93° East 564 649 39,000  Level FlightAware
03:51AM -25.7680 149.3620 93° East 564 649 39,000  Level FlightAware
03:52AM -25.7740 149.4800 93° East 564 649 39,000 -1,860 Level FlightAware
03:53AM -25.7993 149.8464 93° East 527 606 36,100 -2,520 Descending Aus ATC (RADAR)
03:54AM -25.8372 149.9968 106° East 506 582 34,600 -1,560 Descending Aus ATC (RADAR)
03:55AM -25.8778 150.1167 111° Southeast 494 568 33,300 -1,440 Descending Aus ATC (RADAR)
03:56AM -25.9133 150.2202 111° Southeast 473 544 32,400 -1,380 Descending Aus ATC (RADAR)
03:56AM -25.9511 150.3322 111° Southeast 460 529 31,200 -1,320 Descending Aus ATC (RADAR)
03:57AM -25.9877 150.4409 111° Southeast 440 506 30,200 -1,260 Descending Aus ATC (RADAR)
03:58AM -26.0233 150.5470 111° Southeast 432 497 29,100 -600 Descending Aus ATC (RADAR)
03:59AM -26.0589 150.6519 111° Southeast 432 497 29,200 60 Climbing Aus ATC (RADAR)
03:59AM -26.0849 150.7283 111° Southeast 449 517 29,200  Level Aus ATC (RADAR)
04:00AM -26.1222 150.8432 110° East 469 540 29,200  Level Aus ATC (RADAR)
04:01AM -26.1453 150.9116 111° Southeast 468 539 29,200  Level Aus ATC (RADAR)
04:02AM -26.1834 151.0260 110° East 468 539 29,200  Level Aus ATC (RADAR)
04:02AM -26.2216 151.1408 110° East 470 541 29,200 -180 Level Aus ATC (RADAR)
04:03AM -26.2260 151.1510 110° East 477 549 29,000 -240 Descending FlightAware
04:04AM -26.2660 151.2710 110° East 480 552 29,000  Level FlightAware
04:04AM -26.3000 151.3780 110° East 481 554 29,000  Level FlightAware
04:05AM -26.3320 151.4740 110° East 480 552 29,000 -780 Level FlightAware
04:06AM -26.3650 151.5750 110° East 470 541 27,900 -1,620 Descending FlightAware
04:06AM -26.3950 151.6650 110° East 460 529 26,800 -1,680 Descending FlightAware
04:07AM -26.4340 151.7870 110° East 449 517 25,300 -1,560 Descending FlightAware
04:08AM -26.4640 151.8770 110° East 440 506 24,200 -1,380 Descending FlightAware
04:09AM -26.5150 151.9900 117° Southeast 412 474 23,000 -1,320 Descending FlightAware
04:10AM -26.5570 152.0650 122° Southeast 399 459 22,100 -1,380 Descending FlightAware
04:10AM -26.5980 152.1370 123° Southeast 389 448 21,100 -1,320 Descending FlightAware
04:11AM -26.6289 152.1917 123° Southeast 376 433 20,500 -1,800 Descending Aus ATC (RADAR)
04:11AM -26.6380 152.2070 123° Southeast 381 438 19,900 -1,920 Descending FlightAware
04:12AM -26.6806 152.2840 123° Southeast 373 429 18,800 -1,740 Descending Aus ATC (RADAR)
04:12AM -26.6790 152.2800 123° Southeast 377 434 18,600 -1,980 Descending FlightAware
04:12AM -26.7170 152.3470 122° Southeast 371 427 17,500 -1,500 Descending FlightAware
04:13AM -26.7585 152.4241 122° Southeast 362 417 16,500 -1,620 Descending Aus ATC (RADAR)
04:13AM -26.7580 152.4210 122° Southeast 368 423 16,300 -1,980 Descending FlightAware
04:14AM -26.7940 152.4870 121° Southeast 356 410 15,200 -1,620 Descending FlightAware
04:15AM -26.8310 152.5530 122° Southeast 351 404 14,100 -1,320 Descending FlightAware
04:15AM -26.8660 152.6140 123° Southeast 332 382 13,100 -1,560 Descending FlightAware
04:16AM -26.9270 152.6850 134° Southeast 319 367 11,600 -1,860 Descending FlightAware
04:17AM -26.9730 152.7320 138° Southeast 314 361 10,500 -1,620 Descending FlightAware
04:17AM -27.0040 152.7640 137° Southeast 313 360 9,700 -1,620 Descending FlightAware
04:18AM -27.0330 152.7940 137° Southeast 312 359 9,000 -1,620 Descending FlightAware
04:18AM -27.0590 152.8210 137° Southeast 306 352 8,300 -1,500 Descending FlightAware
04:19AM -27.0890 152.8510 138° Southeast 290 334 7,700 -840 Descending FlightAware
04:19AM -27.1030 152.8660 136° Southeast 274 315 7,700 -600 Level FlightAware
04:19AM -27.1280 152.8940 135° Southeast 261 300 7,300 -1,020 Descending FlightAware
04:20AM -27.1320 152.9030 117° Southeast 260 299 7,100 -1,380 Descending FlightAware
04:20AM -27.1370 152.9290 102° East 255 293 6,700 -1,320 Descending FlightAware
04:20AM -27.1430 152.9650 101° East 253 291 6,100 -1,320 Descending FlightAware
04:21AM -27.1500 153.0010 102° East 252 290 5,500 -1,260 Descending FlightAware
04:21AM -27.1560 153.0340 102° East 249 287 5,000 -1,080 Descending FlightAware
04:22AM -27.1630 153.0730 101° East 242 278 4,500 -840 Descending FlightAware
04:22AM -27.1720 153.1060 107° East 231 266 4,200 -600 Descending FlightAware
04:23AM -27.1800 153.1320 109° East 215 247 4,000 -600 Descending FlightAware
04:23AM -27.1920 153.1560 119° Southeast 197 227 3,700 -900 Descending FlightAware
04:24AM -27.2110 153.1750 138° Southeast 185 213 3,200 -1,020 Descending FlightAware
04:24AM -27.2340 153.1870 155° Southeast 173 199 2,700 -960 Descending FlightAware
04:24AM -27.2450 153.1900 166° South 167 192 2,500 -600 Descending FlightAware
04:25AM -27.2741 153.1891 166° South 164 189 2,200 -900 Descending Aus ATC (RADAR)
04:25AM -27.2760 153.1880 166° South 166 191 1,900 -1,320 Descending FlightAware
04:25AM -27.2940 153.1810 199° South 161 185 1,600 -840 Descending FlightAware
04:26AM -27.3060 153.1730 211° Southwest 150 173 1,300 -780 Descending FlightAware
04:26AM -27.3170 153.1670 206° Southwest 137 158 1,100 -720 Descending FlightAware
04:27AM -27.3340 153.1570 208° Southwest 134 154 700 -840 Descending FlightAware
04:27AM -27.3510 153.1470 208° Southwest 133 153 300 -780 Descending FlightAware
04:27AM -27.3560 153.1450 200° South 134 154 200 -300 Descending FlightAware
04:28AM -27.3740 153.1350 200° South 138 159 -240 Descending FlightAware
04:28AM -27.3751 153.1341 200° South 139 160 100 3,000 Climbing Aus ATC (RADAR)
04:28AM -27.3870 153.1270 209° Southwest 61 70 -240 Descending FlightAware
04:28AM -27.3900 153.1250 211° Southwest 42 48  Level FlightAware
04:29AM -27.3910 153.1220 249° West 17 20  Level FlightAware